sensor_id;sensor_type;location;lat;lon;timestamp;temperature;humidity
77839;SHT31;67034;43.226;27.932;2023-07-29T00:00:53;18.56;77.65
77839;SHT31;67034;43.226;27.932;2023-07-29T00:03:19;18.68;77.56
77839;SHT31;67034;43.226;27.932;2023-07-29T00:05:45;18.77;77.12
77839;SHT31;67034;43.226;27.932;2023-07-29T00:08:12;18.67;77.19
77839;SHT31;67034;43.226;27.932;2023-07-29T00:10:38;18.54;77.38
77839;SHT31;67034;43.226;27.932;2023-07-29T00:13:04;18.43;77.78
77839;SHT31;67034;43.226;27.932;2023-07-29T00:15:30;18.39;77.96
77839;SHT31;67034;43.226;27.932;2023-07-29T00:17:55;18.27;78.17
77839;SHT31;67034;43.226;27.932;2023-07-29T00:20:21;18.30;78.32
77839;SHT31;67034;43.226;27.932;2023-07-29T00:22:47;18.33;78.17
77839;SHT31;67034;43.226;27.932;2023-07-29T00:25:16;18.34;78.20
77839;SHT31;67034;43.226;27.932;2023-07-29T00:27:42;18.37;78.16
77839;SHT31;67034;43.226;27.932;2023-07-29T00:30:08;18.48;77.90
77839;SHT31;67034;43.226;27.932;2023-07-29T00:32:35;18.57;77.45
77839;SHT31;67034;43.226;27.932;2023-07-29T00:35:02;18.47;77.62
77839;SHT31;67034;43.226;27.932;2023-07-29T00:37:28;18.40;77.83
77839;SHT31;67034;43.226;27.932;2023-07-29T00:39:54;18.36;77.95
77839;SHT31;67034;43.226;27.932;2023-07-29T00:42:21;18.34;78.06
77839;SHT31;67034;43.226;27.932;2023-07-29T00:44:47;18.36;77.93
77839;SHT31;67034;43.226;27.932;2023-07-29T00:47:15;18.30;77.98
77839;SHT31;67034;43.226;27.932;2023-07-29T00:49:41;18.26;78.03
77839;SHT31;67034;43.226;27.932;2023-07-29T00:52:07;18.34;78.02
77839;SHT31;67034;43.226;27.932;2023-07-29T00:54:33;18.48;77.69
77839;SHT31;67034;43.226;27.932;2023-07-29T00:56:58;18.53;77.26
77839;SHT31;67034;43.226;27.932;2023-07-29T00:59:25;18.48;77.23
77839;SHT31;67034;43.226;27.932;2023-07-29T01:01:53;18.39;77.53
77839;SHT31;67034;43.226;27.932;2023-07-29T01:04:19;18.30;77.59
77839;SHT31;67034;43.226;27.932;2023-07-29T01:06:52;18.26;77.90
77839;SHT31;67034;43.226;27.932;2023-07-29T01:09:25;18.50;77.70
77839;SHT31;67034;43.226;27.932;2023-07-29T01:12:01;18.77;77.02
77839;SHT31;67034;43.226;27.932;2023-07-29T01:14:36;19.01;75.96
77839;SHT31;67034;43.226;27.932;2023-07-29T01:17:06;18.98;75.92
77839;SHT31;67034;43.226;27.932;2023-07-29T01:19:55;19.06;75.59
77839;SHT31;67034;43.226;27.932;2023-07-29T01:22:21;19.14;75.20
77839;SHT31;67034;43.226;27.932;2023-07-29T01:24:50;19.15;75.03
77839;SHT31;67034;43.226;27.932;2023-07-29T01:27:16;19.16;74.94
77839;SHT31;67034;43.226;27.932;2023-07-29T01:29:42;19.27;74.80
77839;SHT31;67034;43.226;27.932;2023-07-29T01:32:11;19.45;74.31
77839;SHT31;67034;43.226;27.932;2023-07-29T01:34:45;19.56;73.79
77839;SHT31;67034;43.226;27.932;2023-07-29T01:37:17;19.47;73.63
77839;SHT31;67034;43.226;27.932;2023-07-29T01:39:45;19.42;73.90
77839;SHT31;67034;43.226;27.932;2023-07-29T01:42:13;19.43;73.85
77839;SHT31;67034;43.226;27.932;2023-07-29T01:44:39;19.53;73.53
77839;SHT31;67034;43.226;27.932;2023-07-29T01:47:05;19.56;73.31
77839;SHT31;67034;43.226;27.932;2023-07-29T01:49:31;19.64;73.11
77839;SHT31;67034;43.226;27.932;2023-07-29T01:51:56;19.69;72.74
77839;SHT31;67034;43.226;27.932;2023-07-29T01:54:22;19.60;72.73
77839;SHT31;67034;43.226;27.932;2023-07-29T01:56:48;19.49;72.81
77839;SHT31;67034;43.226;27.932;2023-07-29T01:59:17;19.57;72.67
77839;SHT31;67034;43.226;27.932;2023-07-29T02:01:43;19.36;72.88
77839;SHT31;67034;43.226;27.932;2023-07-29T02:04:09;19.36;73.10
77839;SHT31;67034;43.226;27.932;2023-07-29T02:06:35;19.35;72.82
77839;SHT31;67034;43.226;27.932;2023-07-29T02:09:00;19.37;72.86
77839;SHT31;67034;43.226;27.932;2023-07-29T02:11:26;19.33;72.83
77839;SHT31;67034;43.226;27.932;2023-07-29T02:13:53;19.26;72.91
77839;SHT31;67034;43.226;27.932;2023-07-29T02:16:20;19.19;73.08
77839;SHT31;67034;43.226;27.932;2023-07-29T02:18:45;19.18;72.88
77839;SHT31;67034;43.226;27.932;2023-07-29T02:21:11;18.94;73.44
77839;SHT31;67034;43.226;27.932;2023-07-29T02:23:37;18.92;73.62
77839;SHT31;67034;43.226;27.932;2023-07-29T02:26:02;18.95;73.54
77839;SHT31;67034;43.226;27.932;2023-07-29T02:28:28;19.04;73.33
77839;SHT31;67034;43.226;27.932;2023-07-29T02:31:11;19.20;72.87
77839;SHT31;67034;43.226;27.932;2023-07-29T02:33:39;19.23;72.65
77839;SHT31;67034;43.226;27.932;2023-07-29T02:36:04;19.36;72.26
77839;SHT31;67034;43.226;27.932;2023-07-29T02:38:30;19.16;72.13
77839;SHT31;67034;43.226;27.932;2023-07-29T02:40:56;19.01;72.87
77839;SHT31;67034;43.226;27.932;2023-07-29T02:43:22;19.08;72.84
77839;SHT31;67034;43.226;27.932;2023-07-29T02:45:47;19.32;72.39
77839;SHT31;67034;43.226;27.932;2023-07-29T02:48:13;19.40;71.94
77839;SHT31;67034;43.226;27.932;2023-07-29T02:50:40;19.45;71.63
77839;SHT31;67034;43.226;27.932;2023-07-29T02:53:06;19.52;71.52
77839;SHT31;67034;43.226;27.932;2023-07-29T02:55:32;19.30;71.61
77839;SHT31;67034;43.226;27.932;2023-07-29T02:57:57;19.25;72.00
77839;SHT31;67034;43.226;27.932;2023-07-29T03:00:23;18.91;72.42
77839;SHT31;67034;43.226;27.932;2023-07-29T03:02:49;18.51;73.49
77839;SHT31;67034;43.226;27.932;2023-07-29T03:05:16;18.25;74.04
77839;SHT31;67034;43.226;27.932;2023-07-29T03:07:43;18.06;74.51
77839;SHT31;67034;43.226;27.932;2023-07-29T03:10:09;18.06;74.73
77839;SHT31;67034;43.226;27.932;2023-07-29T03:12:36;18.05;74.97
77839;SHT31;67034;43.226;27.932;2023-07-29T03:15:03;18.19;74.76
77839;SHT31;67034;43.226;27.932;2023-07-29T03:17:29;18.03;75.01
77839;SHT31;67034;43.226;27.932;2023-07-29T03:19:54;17.86;75.59
77839;SHT31;67034;43.226;27.932;2023-07-29T03:22:20;17.78;76.01
77839;SHT31;67034;43.226;27.932;2023-07-29T03:24:47;17.74;76.33
77839;SHT31;67034;43.226;27.932;2023-07-29T03:27:13;17.68;76.67
77839;SHT31;67034;43.226;27.932;2023-07-29T03:29:40;17.64;76.95
77839;SHT31;67034;43.226;27.932;2023-07-29T03:32:06;17.82;76.49
77839;SHT31;67034;43.226;27.932;2023-07-29T03:34:32;17.75;76.66
77839;SHT31;67034;43.226;27.932;2023-07-29T03:36:58;17.68;76.93
77839;SHT31;67034;43.226;27.932;2023-07-29T03:39:24;17.75;77.12
77839;SHT31;67034;43.226;27.932;2023-07-29T03:41:51;17.82;76.89
77839;SHT31;67034;43.226;27.932;2023-07-29T03:44:17;17.96;76.82
77839;SHT31;67034;43.226;27.932;2023-07-29T03:46:43;18.10;76.14
77839;SHT31;67034;43.226;27.932;2023-07-29T03:49:09;18.12;76.15
77839;SHT31;67034;43.226;27.932;2023-07-29T03:51:35;18.10;76.33
77839;SHT31;67034;43.226;27.932;2023-07-29T03:54:00;18.14;76.55
77839;SHT31;67034;43.226;27.932;2023-07-29T03:56:26;18.16;76.45
77839;SHT31;67034;43.226;27.932;2023-07-29T03:58:53;18.19;76.63
77839;SHT31;67034;43.226;27.932;2023-07-29T04:01:27;18.34;76.52
77839;SHT31;67034;43.226;27.932;2023-07-29T04:03:52;18.69;75.89
77839;SHT31;67034;43.226;27.932;2023-07-29T04:06:18;18.75;75.53
77839;SHT31;67034;43.226;27.932;2023-07-29T04:08:44;18.85;75.54
77839;SHT31;67034;43.226;27.932;2023-07-29T04:11:09;18.88;75.61
77839;SHT31;67034;43.226;27.932;2023-07-29T04:13:35;18.92;75.64
77839;SHT31;67034;43.226;27.932;2023-07-29T04:16:04;19.09;75.54
77839;SHT31;67034;43.226;27.932;2023-07-29T04:18:30;19.25;75.24
77839;SHT31;67034;43.226;27.932;2023-07-29T04:20:55;19.49;74.86
77839;SHT31;67034;43.226;27.932;2023-07-29T04:23:21;19.78;74.32
77839;SHT31;67034;43.226;27.932;2023-07-29T04:25:47;19.66;74.61
77839;SHT31;67034;43.226;27.932;2023-07-29T04:28:12;19.60;74.65
77839;SHT31;67034;43.226;27.932;2023-07-29T04:30:38;19.70;74.76
77839;SHT31;67034;43.226;27.932;2023-07-29T04:33:05;19.77;74.76
77839;SHT31;67034;43.226;27.932;2023-07-29T04:35:31;19.91;74.19
77839;SHT31;67034;43.226;27.932;2023-07-29T04:37:57;20.17;73.21
77839;SHT31;67034;43.226;27.932;2023-07-29T04:40:22;20.39;72.42
77839;SHT31;67034;43.226;27.932;2023-07-29T04:42:48;20.57;71.82
77839;SHT31;67034;43.226;27.932;2023-07-29T04:45:14;20.72;71.66
77839;SHT31;67034;43.226;27.932;2023-07-29T04:47:39;20.89;71.23
77839;SHT31;67034;43.226;27.932;2023-07-29T04:50:08;21.07;69.90
77839;SHT31;67034;43.226;27.932;2023-07-29T04:52:34;21.13;69.30
77839;SHT31;67034;43.226;27.932;2023-07-29T04:54:59;21.14;69.05
77839;SHT31;67034;43.226;27.932;2023-07-29T04:57:26;21.24;68.94
77839;SHT31;67034;43.226;27.932;2023-07-29T04:59:51;21.40;68.79
77839;SHT31;67034;43.226;27.932;2023-07-29T05:02:17;21.58;68.62
77839;SHT31;67034;43.226;27.932;2023-07-29T05:04:43;21.81;68.05
77839;SHT31;67034;43.226;27.932;2023-07-29T05:07:10;22.05;67.59
77839;SHT31;67034;43.226;27.932;2023-07-29T05:09:35;22.21;66.56
77839;SHT31;67034;43.226;27.932;2023-07-29T05:12:01;22.30;65.79
77839;SHT31;67034;43.226;27.932;2023-07-29T05:14:27;22.40;65.75
77839;SHT31;67034;43.226;27.932;2023-07-29T05:16:52;22.64;65.23
77839;SHT31;67034;43.226;27.932;2023-07-29T05:19:18;22.64;64.66
77839;SHT31;67034;43.226;27.932;2023-07-29T05:21:44;22.69;63.40
77839;SHT31;67034;43.226;27.932;2023-07-29T05:24:11;22.74;62.09
77839;SHT31;67034;43.226;27.932;2023-07-29T05:26:37;22.71;61.70
77839;SHT31;67034;43.226;27.932;2023-07-29T05:29:03;22.85;61.86
77839;SHT31;67034;43.226;27.932;2023-07-29T05:31:29;22.81;62.35
77839;SHT31;67034;43.226;27.932;2023-07-29T05:33:55;22.90;62.68
77839;SHT31;67034;43.226;27.932;2023-07-29T05:36:20;22.88;62.54
77839;SHT31;67034;43.226;27.932;2023-07-29T05:38:46;22.98;62.09
77839;SHT31;67034;43.226;27.932;2023-07-29T05:41:13;23.09;60.88
77839;SHT31;67034;43.226;27.932;2023-07-29T05:43:39;22.95;60.52
77839;SHT31;67034;43.226;27.932;2023-07-29T05:46:05;22.90;61.10
77839;SHT31;67034;43.226;27.932;2023-07-29T05:48:32;22.85;61.23
77839;SHT31;67034;43.226;27.932;2023-07-29T05:50:58;23.05;60.68
77839;SHT31;67034;43.226;27.932;2023-07-29T05:53:23;23.04;60.02
77839;SHT31;67034;43.226;27.932;2023-07-29T05:55:49;23.04;60.41
77839;SHT31;67034;43.226;27.932;2023-07-29T05:58:16;23.06;60.44
77839;SHT31;67034;43.226;27.932;2023-07-29T06:00:42;23.14;60.50
77839;SHT31;67034;43.226;27.932;2023-07-29T06:03:08;23.18;60.74
77839;SHT31;67034;43.226;27.932;2023-07-29T06:05:33;23.29;60.68
77839;SHT31;67034;43.226;27.932;2023-07-29T06:07:59;23.45;60.22
77839;SHT31;67034;43.226;27.932;2023-07-29T06:10:25;23.50;59.37
77839;SHT31;67034;43.226;27.932;2023-07-29T06:12:50;23.71;59.43
77839;SHT31;67034;43.226;27.932;2023-07-29T06:15:17;23.85;59.47
77839;SHT31;67034;43.226;27.932;2023-07-29T06:17:47;23.75;59.44
77839;SHT31;67034;43.226;27.932;2023-07-29T06:20:12;23.81;59.22
77839;SHT31;67034;43.226;27.932;2023-07-29T06:22:38;23.97;59.02
77839;SHT31;67034;43.226;27.932;2023-07-29T06:25:04;24.05;58.63
77839;SHT31;67034;43.226;27.932;2023-07-29T06:27:30;24.07;58.90
77839;SHT31;67034;43.226;27.932;2023-07-29T06:29:56;24.24;58.03
77839;SHT31;67034;43.226;27.932;2023-07-29T06:32:23;24.29;57.59
77839;SHT31;67034;43.226;27.932;2023-07-29T06:34:48;24.31;56.90
77839;SHT31;67034;43.226;27.932;2023-07-29T06:37:14;24.28;57.28
77839;SHT31;67034;43.226;27.932;2023-07-29T06:39:40;24.26;57.02
77839;SHT31;67034;43.226;27.932;2023-07-29T06:42:06;24.29;57.25
77839;SHT31;67034;43.226;27.932;2023-07-29T06:44:32;24.36;56.61
77839;SHT31;67034;43.226;27.932;2023-07-29T06:46:58;24.55;56.90
77839;SHT31;67034;43.226;27.932;2023-07-29T06:49:25;24.82;56.50
77839;SHT31;67034;43.226;27.932;2023-07-29T06:51:51;24.93;55.86
77839;SHT31;67034;43.226;27.932;2023-07-29T06:54:16;25.16;55.23
77839;SHT31;67034;43.226;27.932;2023-07-29T06:56:42;25.13;53.42
77839;SHT31;67034;43.226;27.932;2023-07-29T06:59:08;25.18;53.08
77839;SHT31;67034;43.226;27.932;2023-07-29T07:01:34;25.27;53.27
77839;SHT31;67034;43.226;27.932;2023-07-29T07:04:00;25.52;53.74
77839;SHT31;67034;43.226;27.932;2023-07-29T07:06:27;25.84;53.78
77839;SHT31;67034;43.226;27.932;2023-07-29T07:08:53;25.92;52.82
77839;SHT31;67034;43.226;27.932;2023-07-29T07:11:20;26.15;52.60
77839;SHT31;67034;43.226;27.932;2023-07-29T07:13:45;26.43;52.77
77839;SHT31;67034;43.226;27.932;2023-07-29T07:16:11;26.61;52.65
77839;SHT31;67034;43.226;27.932;2023-07-29T07:18:37;26.81;52.42
77839;SHT31;67034;43.226;27.932;2023-07-29T07:21:02;26.87;52.38
77839;SHT31;67034;43.226;27.932;2023-07-29T07:23:30;26.96;50.87
77839;SHT31;67034;43.226;27.932;2023-07-29T07:25:55;26.87;50.05
77839;SHT31;67034;43.226;27.932;2023-07-29T07:28:21;26.87;50.39
77839;SHT31;67034;43.226;27.932;2023-07-29T07:30:47;27.06;50.87
77839;SHT31;67034;43.226;27.932;2023-07-29T07:33:12;27.21;50.03
77839;SHT31;67034;43.226;27.932;2023-07-29T07:35:38;27.22;48.80
77839;SHT31;67034;43.226;27.932;2023-07-29T07:38:04;27.29;49.16
77839;SHT31;67034;43.226;27.932;2023-07-29T07:40:34;27.35;48.79
77839;SHT31;67034;43.226;27.932;2023-07-29T07:43:01;27.35;48.86
77839;SHT31;67034;43.226;27.932;2023-07-29T07:45:27;27.38;48.28
77839;SHT31;67034;43.226;27.932;2023-07-29T07:47:52;27.49;48.81
77839;SHT31;67034;43.226;27.932;2023-07-29T07:50:19;27.54;47.99
77839;SHT31;67034;43.226;27.932;2023-07-29T07:52:45;27.66;48.24
77839;SHT31;67034;43.226;27.932;2023-07-29T07:55:10;27.69;48.04
77839;SHT31;67034;43.226;27.932;2023-07-29T07:57:37;27.77;47.43
77839;SHT31;67034;43.226;27.932;2023-07-29T08:00:04;27.77;47.23
77839;SHT31;67034;43.226;27.932;2023-07-29T08:02:30;27.83;48.03
77839;SHT31;67034;43.226;27.932;2023-07-29T08:04:56;27.84;47.05
77839;SHT31;67034;43.226;27.932;2023-07-29T08:07:21;27.98;46.75
77839;SHT31;67034;43.226;27.932;2023-07-29T08:09:47;28.10;46.54
77839;SHT31;67034;43.226;27.932;2023-07-29T08:12:13;28.24;46.19
77839;SHT31;67034;43.226;27.932;2023-07-29T08:14:40;28.24;45.98
77839;SHT31;67034;43.226;27.932;2023-07-29T08:17:06;28.37;45.73
77839;SHT31;67034;43.226;27.932;2023-07-29T08:19:32;28.42;44.37
77839;SHT31;67034;43.226;27.932;2023-07-29T08:21:57;28.47;44.81
77839;SHT31;67034;43.226;27.932;2023-07-29T08:24:23;28.52;44.11
77839;SHT31;67034;43.226;27.932;2023-07-29T08:26:49;28.52;43.50
77839;SHT31;67034;43.226;27.932;2023-07-29T08:29:15;28.45;43.47
77839;SHT31;67034;43.226;27.932;2023-07-29T08:31:42;28.47;42.88
77839;SHT31;67034;43.226;27.932;2023-07-29T08:34:09;28.60;42.29
77839;SHT31;67034;43.226;27.932;2023-07-29T08:36:35;28.77;41.93
77839;SHT31;67034;43.226;27.932;2023-07-29T08:39:00;28.84;41.36
77839;SHT31;67034;43.226;27.932;2023-07-29T08:41:31;28.96;43.51
77839;SHT31;67034;43.226;27.932;2023-07-29T08:44:02;29.11;44.31
77839;SHT31;67034;43.226;27.932;2023-07-29T08:46:31;28.99;43.82
77839;SHT31;67034;43.226;27.932;2023-07-29T08:48:59;28.45;45.73
77839;SHT31;67034;43.226;27.932;2023-07-29T08:51:26;28.28;46.13
77839;SHT31;67034;43.226;27.932;2023-07-29T08:53:52;28.27;45.59
77839;SHT31;67034;43.226;27.932;2023-07-29T08:56:18;28.25;45.84
77839;SHT31;67034;43.226;27.932;2023-07-29T08:58:44;28.42;45.76
77839;SHT31;67034;43.226;27.932;2023-07-29T09:01:10;28.60;46.59
77839;SHT31;67034;43.226;27.932;2023-07-29T09:03:37;28.83;46.70
77839;SHT31;67034;43.226;27.932;2023-07-29T09:06:05;28.89;46.35
77839;SHT31;67034;43.226;27.932;2023-07-29T09:08:32;28.76;46.17
77839;SHT31;67034;43.226;27.932;2023-07-29T09:10:58;28.59;47.06
77839;SHT31;67034;43.226;27.932;2023-07-29T09:13:24;28.38;47.41
77839;SHT31;67034;43.226;27.932;2023-07-29T09:15:57;28.14;48.40
77839;SHT31;67034;43.226;27.932;2023-07-29T09:18:25;28.17;48.61
77839;SHT31;67034;43.226;27.932;2023-07-29T09:20:52;27.94;48.23
77839;SHT31;67034;43.226;27.932;2023-07-29T09:23:20;27.93;48.60
77839;SHT31;67034;43.226;27.932;2023-07-29T09:25:46;27.91;49.74
77839;SHT31;67034;43.226;27.932;2023-07-29T09:28:19;27.84;49.59
77839;SHT31;67034;43.226;27.932;2023-07-29T09:30:46;27.97;50.88
77839;SHT31;67034;43.226;27.932;2023-07-29T09:33:12;28.22;50.82
77839;SHT31;67034;43.226;27.932;2023-07-29T09:35:38;28.59;50.71
77839;SHT31;67034;43.226;27.932;2023-07-29T09:38:04;28.59;49.40
77839;SHT31;67034;43.226;27.932;2023-07-29T09:40:35;28.49;49.14
77839;SHT31;67034;43.226;27.932;2023-07-29T09:43:01;28.59;48.86
77839;SHT31;67034;43.226;27.932;2023-07-29T09:45:27;28.53;48.15
77839;SHT31;67034;43.226;27.932;2023-07-29T09:47:54;28.48;48.35
77839;SHT31;67034;43.226;27.932;2023-07-29T09:50:23;28.62;48.46
77839;SHT31;67034;43.226;27.932;2023-07-29T09:52:50;28.84;49.14
77839;SHT31;67034;43.226;27.932;2023-07-29T09:55:17;29.04;48.89
77839;SHT31;67034;43.226;27.932;2023-07-29T09:57:45;29.34;49.01
77839;SHT31;67034;43.226;27.932;2023-07-29T10:00:12;29.28;47.61
77839;SHT31;67034;43.226;27.932;2023-07-29T10:02:39;29.26;48.65
77839;SHT31;67034;43.226;27.932;2023-07-29T10:05:06;29.07;49.73
77839;SHT31;67034;43.226;27.932;2023-07-29T10:07:33;28.90;50.12
77839;SHT31;67034;43.226;27.932;2023-07-29T10:09:59;29.17;50.01
77839;SHT31;67034;43.226;27.932;2023-07-29T10:12:25;29.37;50.73
77839;SHT31;67034;43.226;27.932;2023-07-29T10:14:55;29.71;50.95
77839;SHT31;67034;43.226;27.932;2023-07-29T10:17:24;29.31;52.86
77839;SHT31;67034;43.226;27.932;2023-07-29T10:19:51;28.52;54.16
77839;SHT31;67034;43.226;27.932;2023-07-29T10:22:21;28.01;56.48
77839;SHT31;67034;43.226;27.932;2023-07-29T10:24:51;27.49;57.03
77839;SHT31;67034;43.226;27.932;2023-07-29T10:27:19;27.36;57.61
77839;SHT31;67034;43.226;27.932;2023-07-29T10:29:47;27.29;56.60
77839;SHT31;67034;43.226;27.932;2023-07-29T10:32:15;27.18;57.64
77839;SHT31;67034;43.226;27.932;2023-07-29T10:34:42;27.22;57.36
77839;SHT31;67034;43.226;27.932;2023-07-29T10:37:08;27.39;56.20
77839;SHT31;67034;43.226;27.932;2023-07-29T10:39:38;27.73;56.46
77839;SHT31;67034;43.226;27.932;2023-07-29T10:42:06;28.18;56.92
77839;SHT31;67034;43.226;27.932;2023-07-29T10:44:49;28.31;55.41
77839;SHT31;67034;43.226;27.932;2023-07-29T10:47:17;27.98;56.76
77839;SHT31;67034;43.226;27.932;2023-07-29T10:49:44;27.96;57.66
77839;SHT31;67034;43.226;27.932;2023-07-29T10:52:13;28.47;56.74
77839;SHT31;67034;43.226;27.932;2023-07-29T10:54:42;28.75;53.64
77839;SHT31;67034;43.226;27.932;2023-07-29T10:57:12;29.03;53.92
77839;SHT31;67034;43.226;27.932;2023-07-29T10:59:38;29.20;53.54
77839;SHT31;67034;43.226;27.932;2023-07-29T11:02:12;29.08;53.30
77839;SHT31;67034;43.226;27.932;2023-07-29T11:04:50;28.95;52.03
77839;SHT31;67034;43.226;27.932;2023-07-29T11:07:23;28.82;53.08
77839;SHT31;67034;43.226;27.932;2023-07-29T11:09:53;28.63;52.98
77839;SHT31;67034;43.226;27.932;2023-07-29T11:12:44;28.63;54.44
77839;SHT31;67034;43.226;27.932;2023-07-29T11:15:21;28.83;53.39
77839;SHT31;67034;43.226;27.932;2023-07-29T11:17:48;29.11;53.26
77839;SHT31;67034;43.226;27.932;2023-07-29T11:20:16;29.26;53.46
77839;SHT31;67034;43.226;27.932;2023-07-29T11:22:42;28.92;52.95
77839;SHT31;67034;43.226;27.932;2023-07-29T11:25:09;28.92;53.25
77839;SHT31;67034;43.226;27.932;2023-07-29T11:27:36;28.82;53.70
77839;SHT31;67034;43.226;27.932;2023-07-29T11:30:03;28.70;54.86
77839;SHT31;67034;43.226;27.932;2023-07-29T11:32:30;28.84;55.28
77839;SHT31;67034;43.226;27.932;2023-07-29T11:34:57;28.92;54.91
77839;SHT31;67034;43.226;27.932;2023-07-29T11:37:24;28.89;54.70
77839;SHT31;67034;43.226;27.932;2023-07-29T11:39:49;28.66;55.45
77839;SHT31;67034;43.226;27.932;2023-07-29T11:42:16;28.51;55.99
77839;SHT31;67034;43.226;27.932;2023-07-29T11:44:42;28.65;55.96
77839;SHT31;67034;43.226;27.932;2023-07-29T11:47:09;28.83;55.89
77839;SHT31;67034;43.226;27.932;2023-07-29T11:49:35;29.13;55.84
77839;SHT31;67034;43.226;27.932;2023-07-29T11:52:02;29.37;54.51
77839;SHT31;67034;43.226;27.932;2023-07-29T11:54:29;29.41;54.45
77839;SHT31;67034;43.226;27.932;2023-07-29T11:56:55;29.61;55.00
77839;SHT31;67034;43.226;27.932;2023-07-29T11:59:21;30.03;53.97
77839;SHT31;67034;43.226;27.932;2023-07-29T12:01:47;30.17;52.76
77839;SHT31;67034;43.226;27.932;2023-07-29T12:04:13;29.61;52.91
77839;SHT31;67034;43.226;27.932;2023-07-29T12:06:39;29.24;53.65
77839;SHT31;67034;43.226;27.932;2023-07-29T12:09:05;29.21;53.95
77839;SHT31;67034;43.226;27.932;2023-07-29T12:11:33;29.13;54.32
77839;SHT31;67034;43.226;27.932;2023-07-29T12:13:59;29.30;54.12
77839;SHT31;67034;43.226;27.932;2023-07-29T12:16:25;29.48;53.82
77839;SHT31;67034;43.226;27.932;2023-07-29T12:18:51;29.51;53.66
77839;SHT31;67034;43.226;27.932;2023-07-29T12:21:18;29.21;53.67
77839;SHT31;67034;43.226;27.932;2023-07-29T12:23:44;28.63;54.58
77839;SHT31;67034;43.226;27.932;2023-07-29T12:26:09;28.42;55.62
77839;SHT31;67034;43.226;27.932;2023-07-29T12:28:37;28.49;55.69
77839;SHT31;67034;43.226;27.932;2023-07-29T12:31:07;28.70;54.54
77839;SHT31;67034;43.226;27.932;2023-07-29T12:33:34;29.11;53.90
77839;SHT31;67034;43.226;27.932;2023-07-29T12:36:00;29.08;53.76
77839;SHT31;67034;43.226;27.932;2023-07-29T12:38:26;29.08;53.70
77839;SHT31;67034;43.226;27.932;2023-07-29T12:40:52;28.49;54.06
77839;SHT31;67034;43.226;27.932;2023-07-29T12:43:18;28.14;55.37
77839;SHT31;67034;43.226;27.932;2023-07-29T12:45:45;28.19;55.60
77839;SHT31;67034;43.226;27.932;2023-07-29T12:48:11;28.21;55.81
77839;SHT31;67034;43.226;27.932;2023-07-29T12:50:37;28.19;54.58
77839;SHT31;67034;43.226;27.932;2023-07-29T12:53:04;27.77;54.01
77839;SHT31;67034;43.226;27.932;2023-07-29T12:55:30;27.47;56.13
77839;SHT31;67034;43.226;27.932;2023-07-29T12:57:55;27.66;55.01
77839;SHT31;67034;43.226;27.932;2023-07-29T13:00:21;27.50;55.06
77839;SHT31;67034;43.226;27.932;2023-07-29T13:02:48;27.67;54.37
77839;SHT31;67034;43.226;27.932;2023-07-29T13:05:14;27.71;54.05
77839;SHT31;67034;43.226;27.932;2023-07-29T13:07:40;27.66;54.20
77839;SHT31;67034;43.226;27.932;2023-07-29T13:10:06;28.11;55.30
77839;SHT31;67034;43.226;27.932;2023-07-29T13:12:32;28.80;53.84
77839;SHT31;67034;43.226;27.932;2023-07-29T13:14:58;28.63;52.42
77839;SHT31;67034;43.226;27.932;2023-07-29T13:17:24;28.70;53.05
77839;SHT31;67034;43.226;27.932;2023-07-29T13:19:51;28.90;53.34
77839;SHT31;67034;43.226;27.932;2023-07-29T13:22:17;29.26;53.05
77839;SHT31;67034;43.226;27.932;2023-07-29T13:24:45;29.39;52.67
77839;SHT31;67034;43.226;27.932;2023-07-29T13:27:10;29.18;52.81
77839;SHT31;67034;43.226;27.932;2023-07-29T13:29:36;29.24;53.17
77839;SHT31;67034;43.226;27.932;2023-07-29T13:32:02;29.47;52.77
77839;SHT31;67034;43.226;27.932;2023-07-29T13:34:28;29.48;52.69
77839;SHT31;67034;43.226;27.932;2023-07-29T13:36:55;29.37;52.62
77839;SHT31;67034;43.226;27.932;2023-07-29T13:39:21;28.68;52.88
77839;SHT31;67034;43.226;27.932;2023-07-29T13:41:46;28.19;54.24
77839;SHT31;67034;43.226;27.932;2023-07-29T13:44:12;27.97;54.68
77839;SHT31;67034;43.226;27.932;2023-07-29T13:46:38;28.48;55.52
77839;SHT31;67034;43.226;27.932;2023-07-29T13:49:03;28.86;53.69
77839;SHT31;67034;43.226;27.932;2023-07-29T13:51:29;28.69;53.98
77839;SHT31;67034;43.226;27.932;2023-07-29T13:53:56;28.68;53.90
77839;SHT31;67034;43.226;27.932;2023-07-29T13:56:22;28.72;53.72
77839;SHT31;67034;43.226;27.932;2023-07-29T13:58:49;28.69;54.06
77839;SHT31;67034;43.226;27.932;2023-07-29T14:01:14;29.08;52.84
77839;SHT31;67034;43.226;27.932;2023-07-29T14:03:40;28.73;52.44
77839;SHT31;67034;43.226;27.932;2023-07-29T14:06:06;28.87;52.39
77839;SHT31;67034;43.226;27.932;2023-07-29T14:08:31;29.21;52.32
77839;SHT31;67034;43.226;27.932;2023-07-29T14:10:59;29.23;50.92
77839;SHT31;67034;43.226;27.932;2023-07-29T14:13:24;29.11;51.56
77839;SHT31;67034;43.226;27.932;2023-07-29T14:15:50;29.33;51.66
77839;SHT31;67034;43.226;27.932;2023-07-29T14:18:16;29.30;50.64
77839;SHT31;67034;43.226;27.932;2023-07-29T14:20:42;29.04;51.81
77839;SHT31;67034;43.226;27.932;2023-07-29T14:23:07;29.03;51.73
77839;SHT31;67034;43.226;27.932;2023-07-29T14:25:33;28.92;52.23
77839;SHT31;67034;43.226;27.932;2023-07-29T14:28:00;28.60;52.38
77839;SHT31;67034;43.226;27.932;2023-07-29T14:30:26;28.34;53.24
77839;SHT31;67034;43.226;27.932;2023-07-29T14:32:51;28.28;53.68
77839;SHT31;67034;43.226;27.932;2023-07-29T14:35:17;28.12;54.23
77839;SHT31;67034;43.226;27.932;2023-07-29T14:37:43;28.14;54.40
77839;SHT31;67034;43.226;27.932;2023-07-29T14:40:08;28.17;54.86
77839;SHT31;67034;43.226;27.932;2023-07-29T14:42:34;28.22;54.61
77839;SHT31;67034;43.226;27.932;2023-07-29T14:45:01;28.56;54.64
77839;SHT31;67034;43.226;27.932;2023-07-29T14:47:27;29.02;54.39
77839;SHT31;67034;43.226;27.932;2023-07-29T14:49:53;29.43;53.39
77839;SHT31;67034;43.226;27.932;2023-07-29T14:52:18;29.75;51.76
77839;SHT31;67034;43.226;27.932;2023-07-29T14:54:44;29.79;51.66
77839;SHT31;67034;43.226;27.932;2023-07-29T14:57:10;29.99;52.13
77839;SHT31;67034;43.226;27.932;2023-07-29T14:59:36;29.96;50.38
77839;SHT31;67034;43.226;27.932;2023-07-29T15:02:03;29.62;50.64
77839;SHT31;67034;43.226;27.932;2023-07-29T15:04:29;29.41;51.48
77839;SHT31;67034;43.226;27.932;2023-07-29T15:06:55;29.48;52.21
77839;SHT31;67034;43.226;27.932;2023-07-29T15:09:20;29.72;51.78
77839;SHT31;67034;43.226;27.932;2023-07-29T15:11:46;29.86;51.64